Share

Sumoto, Japan

Awaji-IS Sumoto (IU5175U53) Elev 98 ft | 34.34 °N, 134.88 °E | Change Station

Current weather conditions updated 4 minutes ago

Clear
Clear
77.0 °F
Feels Like 76 °F
N
3.0
Wind Variable Wind from South
Gusts 7.0 mph
Sunrise 5:27 AM
Sunset 6:33 PM
Moon Waning Gibbous

Tomorrow is forecast to be Much Cooler than today. Showers.

Pressure 29.89 in
Visibility -9999.0 miles
Clouds
Heat Index 76 °F
Dew Point 26 °F
Humidity 15%
Rainfall 0.00 in
Snow Depth Not available.
UV 0.0 out of 16
Pollen Not available.
Air Quality Not available.
Flu Activity Not available.
METAR RJBB 170700Z 25008KT CAVOK 20/10 Q1012 NOSIG

More Conditions Fewer Conditions

Pressure 29.89 in
Visibility -9999.0 miles
Clouds
Heat Index 76 °F
Dew Point 26 °F
Humidity 15%
Rainfall 0.00 in
Snow Depth Not available.
UV 0.0 out of 16
Pollen Not available.
Air Quality Not available.
Flu Activity Not available.
METAR RJBB 170700Z 25008KT CAVOK 20/10 Q1012 NOSIG

More Conditions Fewer Conditions

10-Day Forecast

Almanac

Astronomy

Apr. 17, 2014 Rise Set
Actual Time 5:27 AM JST 6:33 PM JST
Civil Twilight 5:01 AM JST 6:59 PM JST
Nautical Twilight 4:30 AM JST 7:30 PM JST
Astronomical Twilight 3:58 AM JST 8:02 PM JST
Moon 8:36 PM JST 6:34 AM JST
Length of Visible Light 13h 57m
Length of Day
13h 05m
Tomorrow will be 2m 1s longer.
Waning Gibbous, 95% of the Moon is Illuminated
Today
Waning Gibbous
Apr 22
Last Quarter
Apr 29
New
May 6
First Quarter
May 14
Full

Yesterday's Extremes

Country Highs Country Lows

Community

  • Sunset over the Bay
    Sunset over the Bay
  • symphony in blue....
    symphony in blue....
  • Dawn Surprise
    Dawn Surprise
  • Yucca delight
    Yucca delight
  • Sunset inside of the Ocean
    Sunset inside of the Ocean

WunderPhotos

Upload Photos

1,701,875 photos uploaded!

WunderBlogs® & News

Nearby

Snow Depth

Not available.

Coastal Water Temperatures

Place Temperature
No Stations Reporting

Earthquake Activity

City Distance Mag. Time & Date
No recent earthquake activity has been reported nearby.
Minimum magnitude displayed is 2.5.

Nearby Weather Stations

Station Location Temp. Heat Index Dew Point Humidity Wind Precip. Elev Updated Type
Awaji-IS Sumoto, %u6D32%u672C%u5E02 77.0 °F 76 °F 26 °F 15% South  at  3.0 mph 0.00 in / hr 98 ft 4:29 PM JST Normal
SUNAYAMA-Minami, WAKAYAMA 70.9 °F 77 °F 45 °F 38% West  at  3.0 mph 0.00 in / hr 30 ft 4:34 PM JST Rapid Fire

Show More Stations Show Fewer Stations

What do you think?

We're not finished. Please let us know what you like, what you don't like, and what you are still missing.